Flight Track Log - Related Links

Times and Time Zones

All times are in EDT time to prevent confusion due to time zone crossing. See the SKW6330 flight status page for this flight to view local times or setup timezone preferences in your user account.

Time Position Orientation Groundspeed Altitude Reporting Facility
EDT Latitude Longitude Course Direction KTS MPH feet Rate Location/Type
Wed 07:23:21 PM 33.9500 -118.4667 338° Northwest 160 184 2,500  Level Southern California TRACON
Wed 07:24:21 PM 33.9667 -118.5333 287° West 187 215 4,200 1,636 Climbing Southern California TRACON
Wed 07:24:38 PM 33.9625 -118.5469 250° West 185 213 4,600 1,747 Climbing Los Angeles Center
Wed 07:25:40 PM 33.9767 -118.6122 285° West 194 223 6,500 1,161 Climbing Los Angeles Center
Wed 07:26:00 PM 34.1738 -118.5270 331° Northwest  Level FlightAware Approximate
Wed 07:26:42 PM 34.0300 -118.6217 352° North 199 229 7,000  Level Los Angeles Center
Wed 07:27:00 PM 34.2339 -118.5667 North  Level FlightAware Approximate
Wed 07:27:44 PM 34.0947 -118.6306 354° North 213 245 7,000  Level Los Angeles Center
Wed 07:28:00 PM 34.2990 -118.5912 338° Northwest  Level FlightAware Approximate
Wed 07:28:46 PM 34.1514 -118.6383 354° North 209 241 8,200  Level Los Angeles Center
Wed 07:29:48 PM 34.2022 -118.6467 352° North 188 216 10,000 1,790 Climbing Los Angeles Center
Wed 07:30:50 PM 34.2503 -118.6514 355° North 175 201 11,900 968 Climbing Los Angeles Center
Wed 07:31:52 PM 34.3028 -118.6578 354° North 187 215 12,000 48 Climbing Los Angeles Center
Wed 07:32:54 PM 34.3633 -118.6639 355° North 214 246 12,000  Level Los Angeles Center
Wed 07:33:56 PM 34.4358 -118.6764 352° North 218 251 12,000 48 Level Los Angeles Center
Wed 07:34:58 PM 34.4922 -118.7064 336° Northwest 221 254 12,100 774 Climbing Los Angeles Center
Wed 07:36:00 PM 34.5469 -118.7211 348° North 197 227 13,600 1,258 Climbing Los Angeles Center
Wed 07:37:02 PM 34.5972 -118.7314 350° North 184 212 14,700 1,065 Climbing Los Angeles Center
Wed 07:38:04 PM 34.6481 -118.7414 351° North 184 212 15,800 1,016 Climbing Los Angeles Center
Wed 07:39:06 PM 34.6992 -118.7542 348° North 186 214 16,800 968 Climbing Los Angeles Center
Wed 07:40:08 PM 34.7508 -118.7642 351° North 189 217 17,800 919 Climbing Los Angeles Center
Wed 07:41:10 PM 34.8122 -118.7764 351° North 188 216 18,700 927 Climbing Los Angeles Center
Wed 07:42:11 PM 34.8639 -118.7886 349° North 187 215 19,700 927 Climbing Los Angeles Center
Wed 07:43:13 PM 34.9147 -118.7997 350° North 190 219 20,600 823 Climbing Los Angeles Center
Wed 07:44:15 PM 34.9653 -118.8122 349° North 187 215 21,400 677 Climbing Los Angeles Center
Wed 07:45:17 PM 35.0175 -118.8233 350° North 189 217 22,000 290 Climbing Los Angeles Center
Wed 07:46:19 PM 35.0867 -118.8383 350° North 210 242 22,000  Level Los Angeles Center
Wed 07:47:21 PM 35.1475 -118.8514 350° North 220 253 22,000  Level Los Angeles Center
Wed 07:48:23 PM 35.2078 -118.8647 350° North 220 253 22,000  Level Los Angeles Center
Wed 07:49:25 PM 35.2683 -118.8778 350° North 220 253 22,000  Level Los Angeles Center
Wed 07:50:27 PM 35.3292 -118.8911 350° North 222 255 22,000  Level Los Angeles Center
Wed 07:51:29 PM 35.3906 -118.9050 350° North 224 258 22,000  Level Los Angeles Center
Wed 07:52:30 PM 35.4656 -118.9214 350° North 226 260 22,000  Level Los Angeles Center
Wed 07:53:32 PM 35.5283 -118.9356 350° North 229 264 22,000 -97 Level Los Angeles Center
Wed 07:54:34 PM 35.5894 -118.9497 349° North 226 260 21,800 -290 Descending Los Angeles Center
Wed 07:55:36 PM 35.6553 -118.9642 350° North 232 267 21,400 -385 Descending Los Angeles Center
Wed 07:55:52 PM 35.6672 -118.9672 348° North 230 265 21,300 -462 Descending Oakland Center
Wed 07:56:54 PM 35.7483 -118.9856 350° North 237 273 20,800 -537 Descending Oakland Center
Wed 07:57:55 PM 35.8164 -119.0003 350° North 242 278 20,200 -590 Descending Oakland Center
Wed 07:58:56 PM 35.8861 -119.0161 350° North 248 285 19,600 -639 Descending Oakland Center
Wed 07:59:57 PM 35.9528 -119.0400 344° North 251 289 18,900 -585 Descending Oakland Center
Wed 08:00:59 PM 36.0156 -119.0714 338° Northwest 248 285 18,400 -585 Descending Oakland Center
Wed 08:02:00 PM 36.0794 -119.1019 339° North 247 284 17,700 -787 Descending Oakland Center
Wed 08:03:01 PM 36.1433 -119.1325 339° North 246 283 16,800 -1,033 Descending Oakland Center
Wed 08:04:02 PM 36.2064 -119.1631 339° North 246 283 15,600 -1,279 Descending Oakland Center
Wed 08:05:03 PM 36.2689 -119.1917 340° North 245 282 14,200 -1,610 Descending Oakland Center
Wed 08:06:05 PM 36.3453 -119.2283 339° North 247 284 12,300 -1,902 Descending Oakland Center
Wed 08:07:06 PM 36.4103 -119.2586 339° North 250 288 10,300 -1,869 Descending Oakland Center
Wed 08:08:07 PM 36.4711 -119.3072 327° Northwest 262 302 8,500 -1,475 Descending Oakland Center
Wed 08:09:08 PM 36.5228 -119.3700 316° Northwest 260 299 7,300 -1,033 Descending Oakland Center
Wed 08:10:09 PM 36.5686 -119.4294 314° West 241 277 6,400 -878 Descending Oakland Center
Wed 08:11:11 PM 36.6128 -119.4847 315° West 227 261 5,500 -871 Descending Oakland Center

Login

Don't have an account? Register now (free) for customized features, flight alerts, and more!